sensor_id;sensor_type;location;lat;lon;timestamp;temperature;humidity
20174;DHT22;10246;50.620;7.232;2023-10-09T00:01:03;15.60;16.80
20174;DHT22;10246;50.620;7.232;2023-10-09T00:03:39;15.60;16.50
20174;DHT22;10246;50.620;7.232;2023-10-09T00:06:09;15.50;16.60
20174;DHT22;10246;50.620;7.232;2023-10-09T00:08:38;15.50;16.80
20174;DHT22;10246;50.620;7.232;2023-10-09T00:11:10;15.40;17.00
20174;DHT22;10246;50.620;7.232;2023-10-09T00:13:42;15.40;17.70
20174;DHT22;10246;50.620;7.232;2023-10-09T00:16:16;15.40;18.10
20174;DHT22;10246;50.620;7.232;2023-10-09T00:18:48;15.40;17.80
20174;DHT22;10246;50.620;7.232;2023-10-09T00:21:16;15.40;17.70
20174;DHT22;10246;50.620;7.232;2023-10-09T00:23:45;15.50;17.40
20174;DHT22;10246;50.620;7.232;2023-10-09T00:26:18;15.40;17.00
20174;DHT22;10246;50.620;7.232;2023-10-09T00:28:46;15.50;17.30
20174;DHT22;10246;50.620;7.232;2023-10-09T00:31:13;15.50;17.10
20174;DHT22;10246;50.620;7.232;2023-10-09T00:33:41;15.50;17.30
20174;DHT22;10246;50.620;7.232;2023-10-09T00:36:08;15.50;16.90
20174;DHT22;10246;50.620;7.232;2023-10-09T00:38:37;15.50;16.40
20174;DHT22;10246;50.620;7.232;2023-10-09T00:41:10;15.50;15.90
20174;DHT22;10246;50.620;7.232;2023-10-09T00:43:37;15.50;15.90
20174;DHT22;10246;50.620;7.232;2023-10-09T00:46:08;15.50;15.90
20174;DHT22;10246;50.620;7.232;2023-10-09T00:48:38;15.50;15.90
20174;DHT22;10246;50.620;7.232;2023-10-09T00:51:06;15.50;15.80
20174;DHT22;10246;50.620;7.232;2023-10-09T00:53:44;15.50;15.90
20174;DHT22;10246;50.620;7.232;2023-10-09T00:56:14;15.50;15.90
20174;DHT22;10246;50.620;7.232;2023-10-09T00:58:56;15.50;15.90
20174;DHT22;10246;50.620;7.232;2023-10-09T01:01:26;15.40;15.90
20174;DHT22;10246;50.620;7.232;2023-10-09T01:04:00;15.40;15.80
20174;DHT22;10246;50.620;7.232;2023-10-09T01:06:32;15.40;15.80
20174;DHT22;10246;50.620;7.232;2023-10-09T01:09:00;15.40;15.80
20174;DHT22;10246;50.620;7.232;2023-10-09T01:11:35;15.30;15.80
20174;DHT22;10246;50.620;7.232;2023-10-09T01:14:13;15.30;16.70
20174;DHT22;10246;50.620;7.232;2023-10-09T01:16:40;15.30;16.20
20174;DHT22;10246;50.620;7.232;2023-10-09T01:19:13;15.30;16.60
20174;DHT22;10246;50.620;7.232;2023-10-09T01:21:46;15.30;16.60
20174;DHT22;10246;50.620;7.232;2023-10-09T01:24:15;15.30;16.60
20174;DHT22;10246;50.620;7.232;2023-10-09T01:26:43;15.20;16.40
20174;DHT22;10246;50.620;7.232;2023-10-09T01:29:13;15.20;16.40
20174;DHT22;10246;50.620;7.232;2023-10-09T01:31:46;15.20;16.30
20174;DHT22;10246;50.620;7.232;2023-10-09T01:34:20;15.20;17.10
20174;DHT22;10246;50.620;7.232;2023-10-09T01:36:50;15.20;16.60
20174;DHT22;10246;50.620;7.232;2023-10-09T01:39:23;15.30;15.80
20174;DHT22;10246;50.620;7.232;2023-10-09T01:41:54;15.20;15.70
20174;DHT22;10246;50.620;7.232;2023-10-09T01:44:26;15.10;15.60
20174;DHT22;10246;50.620;7.232;2023-10-09T01:46:55;15.10;15.70
20174;DHT22;10246;50.620;7.232;2023-10-09T01:49:24;15.10;15.60
20174;DHT22;10246;50.620;7.232;2023-10-09T01:51:57;15.10;15.40
20174;DHT22;10246;50.620;7.232;2023-10-09T01:54:29;15.10;15.10
20174;DHT22;10246;50.620;7.232;2023-10-09T01:57:04;15.00;15.60
20174;DHT22;10246;50.620;7.232;2023-10-09T01:59:35;15.00;15.20
20174;DHT22;10246;50.620;7.232;2023-10-09T02:02:04;15.00;14.70
20174;DHT22;10246;50.620;7.232;2023-10-09T02:04:39;15.00;14.60
20174;DHT22;10246;50.620;7.232;2023-10-09T02:07:07;15.00;14.30
20174;DHT22;10246;50.620;7.232;2023-10-09T02:09:36;15.00;14.20
20174;DHT22;10246;50.620;7.232;2023-10-09T02:12:11;15.00;14.20
20174;DHT22;10246;50.620;7.232;2023-10-09T02:14:38;14.90;14.40
20174;DHT22;10246;50.620;7.232;2023-10-09T02:17:07;14.80;14.60
20174;DHT22;10246;50.620;7.232;2023-10-09T02:19:43;14.70;15.40
20174;DHT22;10246;50.620;7.232;2023-10-09T02:22:14;14.70;16.70
20174;DHT22;10246;50.620;7.232;2023-10-09T02:24:43;14.70;18.60
20174;DHT22;10246;50.620;7.232;2023-10-09T02:27:23;14.80;19.10
20174;DHT22;10246;50.620;7.232;2023-10-09T02:30:19;14.80;18.80
20174;DHT22;10246;50.620;7.232;2023-10-09T02:32:53;14.80;18.60
20174;DHT22;10246;50.620;7.232;2023-10-09T02:35:32;14.80;18.40
20174;DHT22;10246;50.620;7.232;2023-10-09T02:38:03;14.80;17.90
20174;DHT22;10246;50.620;7.232;2023-10-09T02:40:34;14.90;18.00
20174;DHT22;10246;50.620;7.232;2023-10-09T02:43:21;14.90;17.50
20174;DHT22;10246;50.620;7.232;2023-10-09T02:45:50;14.80;17.90
20174;DHT22;10246;50.620;7.232;2023-10-09T02:48:17;14.90;17.60
20174;DHT22;10246;50.620;7.232;2023-10-09T02:50:46;14.90;17.70
20174;DHT22;10246;50.620;7.232;2023-10-09T02:53:16;14.90;17.40
20174;DHT22;10246;50.620;7.232;2023-10-09T02:55:55;14.90;17.50
20174;DHT22;10246;50.620;7.232;2023-10-09T02:58:38;14.90;17.30
20174;DHT22;10246;50.620;7.232;2023-10-09T03:01:09;15.00;17.10
20174;DHT22;10246;50.620;7.232;2023-10-09T03:03:39;15.00;17.50
20174;DHT22;10246;50.620;7.232;2023-10-09T03:06:06;15.00;17.20
20174;DHT22;10246;50.620;7.232;2023-10-09T03:08:37;14.90;17.00
20174;DHT22;10246;50.620;7.232;2023-10-09T03:11:05;15.00;17.10
20174;DHT22;10246;50.620;7.232;2023-10-09T03:13:40;15.00;16.80
20174;DHT22;10246;50.620;7.232;2023-10-09T03:16:08;14.90;17.30
20174;DHT22;10246;50.620;7.232;2023-10-09T03:18:35;14.90;17.60
20174;DHT22;10246;50.620;7.232;2023-10-09T03:21:02;14.90;17.60
20174;DHT22;10246;50.620;7.232;2023-10-09T03:23:29;15.00;17.90
20174;DHT22;10246;50.620;7.232;2023-10-09T03:25:56;15.00;17.40
20174;DHT22;10246;50.620;7.232;2023-10-09T03:28:24;15.00;17.40
20174;DHT22;10246;50.620;7.232;2023-10-09T03:30:51;14.90;17.70
20174;DHT22;10246;50.620;7.232;2023-10-09T03:33:18;14.90;17.60
20174;DHT22;10246;50.620;7.232;2023-10-09T03:35:45;14.90;17.30
20174;DHT22;10246;50.620;7.232;2023-10-09T03:38:12;15.00;17.90
20174;DHT22;10246;50.620;7.232;2023-10-09T03:40:42;15.00;17.50
20174;DHT22;10246;50.620;7.232;2023-10-09T03:43:09;15.00;17.20
20174;DHT22;10246;50.620;7.232;2023-10-09T03:45:38;15.00;17.50
20174;DHT22;10246;50.620;7.232;2023-10-09T03:48:11;15.00;17.80
20174;DHT22;10246;50.620;7.232;2023-10-09T03:50:46;15.00;17.80
20174;DHT22;10246;50.620;7.232;2023-10-09T03:53:13;14.90;18.30
20174;DHT22;10246;50.620;7.232;2023-10-09T03:55:40;14.90;19.50
20174;DHT22;10246;50.620;7.232;2023-10-09T03:58:07;14.80;19.10
20174;DHT22;10246;50.620;7.232;2023-10-09T04:00:38;14.70;19.50
20174;DHT22;10246;50.620;7.232;2023-10-09T04:03:11;14.80;19.70
20174;DHT22;10246;50.620;7.232;2023-10-09T04:05:40;14.80;19.80
20174;DHT22;10246;50.620;7.232;2023-10-09T04:08:09;14.80;19.50
20174;DHT22;10246;50.620;7.232;2023-10-09T04:10:38;14.80;19.60
20174;DHT22;10246;50.620;7.232;2023-10-09T04:13:17;14.80;19.60
20174;DHT22;10246;50.620;7.232;2023-10-09T04:15:49;14.90;19.60
20174;DHT22;10246;50.620;7.232;2023-10-09T04:18:18;14.90;19.80
20174;DHT22;10246;50.620;7.232;2023-10-09T04:20:54;14.90;20.10
20174;DHT22;10246;50.620;7.232;2023-10-09T04:23:39;14.90;20.10
20174;DHT22;10246;50.620;7.232;2023-10-09T04:26:19;14.90;20.00
20174;DHT22;10246;50.620;7.232;2023-10-09T04:28:46;14.90;19.80
20174;DHT22;10246;50.620;7.232;2023-10-09T04:31:18;14.90;19.80
20174;DHT22;10246;50.620;7.232;2023-10-09T04:33:47;14.90;19.90
20174;DHT22;10246;50.620;7.232;2023-10-09T04:36:23;14.90;19.90
20174;DHT22;10246;50.620;7.232;2023-10-09T04:38:54;14.90;19.40
20174;DHT22;10246;50.620;7.232;2023-10-09T04:41:41;15.00;19.50
20174;DHT22;10246;50.620;7.232;2023-10-09T04:44:19;15.00;19.20
20174;DHT22;10246;50.620;7.232;2023-10-09T04:46:50;14.90;19.50
20174;DHT22;10246;50.620;7.232;2023-10-09T04:49:31;15.00;19.60
20174;DHT22;10246;50.620;7.232;2023-10-09T04:52:14;14.90;19.70
20174;DHT22;10246;50.620;7.232;2023-10-09T04:54:56;14.90;19.80
20174;DHT22;10246;50.620;7.232;2023-10-09T04:57:42;14.80;19.90
20174;DHT22;10246;50.620;7.232;2023-10-09T05:00:12;14.80;20.50
20174;DHT22;10246;50.620;7.232;2023-10-09T05:02:50;14.80;20.60
20174;DHT22;10246;50.620;7.232;2023-10-09T05:05:20;14.80;21.30
20174;DHT22;10246;50.620;7.232;2023-10-09T05:08:01;14.80;21.00
20174;DHT22;10246;50.620;7.232;2023-10-09T05:10:44;14.80;20.70
20174;DHT22;10246;50.620;7.232;2023-10-09T05:13:31;14.80;20.40
20174;DHT22;10246;50.620;7.232;2023-10-09T05:16:09;14.80;20.70
20174;DHT22;10246;50.620;7.232;2023-10-09T05:18:45;14.80;20.60
20174;DHT22;10246;50.620;7.232;2023-10-09T05:21:21;14.90;20.80
20174;DHT22;10246;50.620;7.232;2023-10-09T05:24:10;14.90;20.00
20174;DHT22;10246;50.620;7.232;2023-10-09T05:26:45;14.90;19.90
20174;DHT22;10246;50.620;7.232;2023-10-09T05:29:18;14.90;20.00
20174;DHT22;10246;50.620;7.232;2023-10-09T05:32:00;14.90;20.30
20174;DHT22;10246;50.620;7.232;2023-10-09T05:34:32;14.90;19.70
20174;DHT22;10246;50.620;7.232;2023-10-09T05:37:22;14.90;19.40
20174;DHT22;10246;50.620;7.232;2023-10-09T05:39:51;14.90;20.00
20174;DHT22;10246;50.620;7.232;2023-10-09T05:42:44;14.90;19.90
20174;DHT22;10246;50.620;7.232;2023-10-09T05:45:12;14.90;19.30
20174;DHT22;10246;50.620;7.232;2023-10-09T05:48:15;15.00;19.40
20174;DHT22;10246;50.620;7.232;2023-10-09T05:51:27;14.90;20.10
20174;DHT22;10246;50.620;7.232;2023-10-09T05:54:09;14.80;21.20
20174;DHT22;10246;50.620;7.232;2023-10-09T05:57:09;14.80;21.30
20174;DHT22;10246;50.620;7.232;2023-10-09T05:59:55;14.90;21.50
20174;DHT22;10246;50.620;7.232;2023-10-09T06:02:54;14.90;21.30
20174;DHT22;10246;50.620;7.232;2023-10-09T06:05:38;14.80;21.50
20174;DHT22;10246;50.620;7.232;2023-10-09T06:08:18;14.80;22.60
20174;DHT22;10246;50.620;7.232;2023-10-09T06:10:50;14.80;22.40
20174;DHT22;10246;50.620;7.232;2023-10-09T06:13:31;14.80;22.70
20174;DHT22;10246;50.620;7.232;2023-10-09T06:16:04;14.80;23.00
20174;DHT22;10246;50.620;7.232;2023-10-09T06:18:46;14.80;22.90
20174;DHT22;10246;50.620;7.232;2023-10-09T06:21:33;14.90;22.40
20174;DHT22;10246;50.620;7.232;2023-10-09T06:24:08;14.90;22.20
20174;DHT22;10246;50.620;7.232;2023-10-09T06:26:45;14.90;22.80
20174;DHT22;10246;50.620;7.232;2023-10-09T06:29:39;15.00;22.10
20174;DHT22;10246;50.620;7.232;2023-10-09T06:32:17;15.00;22.20
20174;DHT22;10246;50.620;7.232;2023-10-09T06:35:00;15.00;22.30
20174;DHT22;10246;50.620;7.232;2023-10-09T06:37:54;15.00;21.90
20174;DHT22;10246;50.620;7.232;2023-10-09T06:40:38;15.00;21.80
20174;DHT22;10246;50.620;7.232;2023-10-09T06:43:24;15.20;22.00
20174;DHT22;10246;50.620;7.232;2023-10-09T06:45:54;15.20;21.90
20174;DHT22;10246;50.620;7.232;2023-10-09T06:48:24;15.20;21.70
20174;DHT22;10246;50.620;7.232;2023-10-09T06:51:11;15.20;22.10
20174;DHT22;10246;50.620;7.232;2023-10-09T06:54:03;15.20;22.70
20174;DHT22;10246;50.620;7.232;2023-10-09T06:56:32;15.20;22.80
20174;DHT22;10246;50.620;7.232;2023-10-09T06:59:13;15.30;23.00
20174;DHT22;10246;50.620;7.232;2023-10-09T07:01:47;15.30;23.20
20174;DHT22;10246;50.620;7.232;2023-10-09T07:04:33;15.30;23.30
20174;DHT22;10246;50.620;7.232;2023-10-09T07:07:20;15.30;23.20
20174;DHT22;10246;50.620;7.232;2023-10-09T07:09:47;15.40;22.90
20174;DHT22;10246;50.620;7.232;2023-10-09T07:12:28;15.50;22.60
20174;DHT22;10246;50.620;7.232;2023-10-09T07:14:59;15.40;22.60
20174;DHT22;10246;50.620;7.232;2023-10-09T07:17:50;15.50;23.20
20174;DHT22;10246;50.620;7.232;2023-10-09T07:20:18;15.50;23.40
20174;DHT22;10246;50.620;7.232;2023-10-09T07:22:58;15.60;23.70
20174;DHT22;10246;50.620;7.232;2023-10-09T07:25:40;15.60;23.20
20174;DHT22;10246;50.620;7.232;2023-10-09T07:28:09;15.60;23.00
20174;DHT22;10246;50.620;7.232;2023-10-09T07:30:55;15.70;23.20
20174;DHT22;10246;50.620;7.232;2023-10-09T07:33:24;15.70;22.70
20174;DHT22;10246;50.620;7.232;2023-10-09T07:36:12;15.80;22.40
20174;DHT22;10246;50.620;7.232;2023-10-09T07:38:39;15.80;22.20
20174;DHT22;10246;50.620;7.232;2023-10-09T07:41:11;15.90;21.90
20174;DHT22;10246;50.620;7.232;2023-10-09T07:44:00;16.00;21.70
20174;DHT22;10246;50.620;7.232;2023-10-09T07:46:44;16.00;21.80
20174;DHT22;10246;50.620;7.232;2023-10-09T07:49:18;16.00;22.00
20174;DHT22;10246;50.620;7.232;2023-10-09T07:51:50;16.10;22.10
20174;DHT22;10246;50.620;7.232;2023-10-09T07:54:18;16.20;22.00
20174;DHT22;10246;50.620;7.232;2023-10-09T07:56:59;16.30;22.00
20174;DHT22;10246;50.620;7.232;2023-10-09T07:59:34;16.30;21.50
20174;DHT22;10246;50.620;7.232;2023-10-09T08:02:06;16.30;21.10
20174;DHT22;10246;50.620;7.232;2023-10-09T08:04:39;16.30;20.70
20174;DHT22;10246;50.620;7.232;2023-10-09T08:07:14;16.40;20.30
20174;DHT22;10246;50.620;7.232;2023-10-09T08:09:45;16.40;20.30
20174;DHT22;10246;50.620;7.232;2023-10-09T08:12:15;16.50;20.70
20174;DHT22;10246;50.620;7.232;2023-10-09T08:14:56;16.60;20.30
20174;DHT22;10246;50.620;7.232;2023-10-09T08:17:25;16.60;20.10
20174;DHT22;10246;50.620;7.232;2023-10-09T08:19:54;16.70;18.40
20174;DHT22;10246;50.620;7.232;2023-10-09T08:22:26;16.80;18.70
20174;DHT22;10246;50.620;7.232;2023-10-09T08:25:08;16.80;18.80
20174;DHT22;10246;50.620;7.232;2023-10-09T08:27:53;16.80;19.00
20174;DHT22;10246;50.620;7.232;2023-10-09T08:30:25;16.90;19.10
20174;DHT22;10246;50.620;7.232;2023-10-09T08:32:54;17.00;19.00
20174;DHT22;10246;50.620;7.232;2023-10-09T08:35:28;17.10;19.00
20174;DHT22;10246;50.620;7.232;2023-10-09T08:37:55;17.10;18.60
20174;DHT22;10246;50.620;7.232;2023-10-09T08:40:29;17.10;18.40
20174;DHT22;10246;50.620;7.232;2023-10-09T08:43:08;17.20;18.60
20174;DHT22;10246;50.620;7.232;2023-10-09T08:45:37;17.30;18.60
20174;DHT22;10246;50.620;7.232;2023-10-09T08:48:05;17.40;18.10
20174;DHT22;10246;50.620;7.232;2023-10-09T08:50:32;17.40;17.20
20174;DHT22;10246;50.620;7.232;2023-10-09T08:53:00;17.50;17.30
20174;DHT22;10246;50.620;7.232;2023-10-09T08:55:28;17.50;17.30
20174;DHT22;10246;50.620;7.232;2023-10-09T08:57:55;17.50;17.20
20174;DHT22;10246;50.620;7.232;2023-10-09T09:00:25;17.60;17.70
20174;DHT22;10246;50.620;7.232;2023-10-09T09:02:59;17.70;16.70
20174;DHT22;10246;50.620;7.232;2023-10-09T09:05:26;17.70;17.10
20174;DHT22;10246;50.620;7.232;2023-10-09T09:07:54;17.70;17.30
20174;DHT22;10246;50.620;7.232;2023-10-09T09:10:27;17.80;16.80
20174;DHT22;10246;50.620;7.232;2023-10-09T09:13:01;17.90;17.10
20174;DHT22;10246;50.620;7.232;2023-10-09T09:15:30;18.00;16.50
20174;DHT22;10246;50.620;7.232;2023-10-09T09:18:05;18.00;15.80
20174;DHT22;10246;50.620;7.232;2023-10-09T09:20:36;18.10;15.30
20174;DHT22;10246;50.620;7.232;2023-10-09T09:23:09;18.10;15.10
20174;DHT22;10246;50.620;7.232;2023-10-09T09:25:42;18.20;15.00
20174;DHT22;10246;50.620;7.232;2023-10-09T09:28:11;18.20;15.00
20174;DHT22;10246;50.620;7.232;2023-10-09T09:30:41;18.30;15.00
20174;DHT22;10246;50.620;7.232;2023-10-09T09:33:18;18.50;13.90
20174;DHT22;10246;50.620;7.232;2023-10-09T09:35:59;18.50;13.90
20174;DHT22;10246;50.620;7.232;2023-10-09T09:38:28;18.60;12.40
20174;DHT22;10246;50.620;7.232;2023-10-09T09:41:08;18.60;11.40
20174;DHT22;10246;50.620;7.232;2023-10-09T09:43:36;18.60;11.60
20174;DHT22;10246;50.620;7.232;2023-10-09T09:46:07;18.70;11.20
20174;DHT22;10246;50.620;7.232;2023-10-09T09:48:37;18.80;10.90
20174;DHT22;10246;50.620;7.232;2023-10-09T09:51:11;18.90;10.10
20174;DHT22;10246;50.620;7.232;2023-10-09T09:53:39;19.10;9.60
20174;DHT22;10246;50.620;7.232;2023-10-09T09:56:06;19.20;9.60
20174;DHT22;10246;50.620;7.232;2023-10-09T09:58:39;19.40;8.70
20174;DHT22;10246;50.620;7.232;2023-10-09T10:01:11;19.50;7.20
20174;DHT22;10246;50.620;7.232;2023-10-09T10:03:45;19.60;6.00
20174;DHT22;10246;50.620;7.232;2023-10-09T10:06:15;19.70;6.10
20174;DHT22;10246;50.620;7.232;2023-10-09T10:08:45;19.80;4.90
20174;DHT22;10246;50.620;7.232;2023-10-09T10:11:43;19.90;4.00
20174;DHT22;10246;50.620;7.232;2023-10-09T10:14:11;20.10;2.30
20174;DHT22;10246;50.620;7.232;2023-10-09T10:17:04;20.30;1.00
20174;DHT22;10246;50.620;7.232;2023-10-09T10:20:04;20.40;1.00
20174;DHT22;10246;50.620;7.232;2023-10-09T10:23:14;20.60;1.00
20174;DHT22;10246;50.620;7.232;2023-10-09T10:25:43;20.80;1.00
20174;DHT22;10246;50.620;7.232;2023-10-09T10:28:19;21.10;1.00
20174;DHT22;10246;50.620;7.232;2023-10-09T10:30:54;21.40;1.00
20174;DHT22;10246;50.620;7.232;2023-10-09T10:33:22;21.80;1.00
20174;DHT22;10246;50.620;7.232;2023-10-09T10:35:51;22.00;1.00
20174;DHT22;10246;50.620;7.232;2023-10-09T10:38:31;22.30;1.00
20174;DHT22;10246;50.620;7.232;2023-10-09T10:41:12;22.40;1.00
20174;DHT22;10246;50.620;7.232;2023-10-09T10:43:40;22.50;1.00
20174;DHT22;10246;50.620;7.232;2023-10-09T10:46:27;22.60;1.00
20174;DHT22;10246;50.620;7.232;2023-10-09T10:49:02;22.70;1.00
20174;DHT22;10246;50.620;7.232;2023-10-09T10:51:40;22.80;1.00
20174;DHT22;10246;50.620;7.232;2023-10-09T10:54:20;22.90;1.00
20174;DHT22;10246;50.620;7.232;2023-10-09T10:57:18;22.90;1.00
20174;DHT22;10246;50.620;7.232;2023-10-09T10:59:59;23.00;1.00
20174;DHT22;10246;50.620;7.232;2023-10-09T11:02:59;23.20;1.00
20174;DHT22;10246;50.620;7.232;2023-10-09T11:05:41;23.20;1.00
20174;DHT22;10246;50.620;7.232;2023-10-09T11:08:09;23.20;1.00
20174;DHT22;10246;50.620;7.232;2023-10-09T11:10:36;23.30;1.00
20174;DHT22;10246;50.620;7.232;2023-10-09T11:13:20;23.30;1.00
20174;DHT22;10246;50.620;7.232;2023-10-09T11:15:58;23.40;1.00
20174;DHT22;10246;50.620;7.232;2023-10-09T11:18:40;23.40;1.00
20174;DHT22;10246;50.620;7.232;2023-10-09T11:21:13;23.60;1.00
20174;DHT22;10246;50.620;7.232;2023-10-09T11:23:58;23.70;1.00
20174;DHT22;10246;50.620;7.232;2023-10-09T11:26:25;23.80;1.00
20174;DHT22;10246;50.620;7.232;2023-10-09T11:29:06;23.90;1.00
20174;DHT22;10246;50.620;7.232;2023-10-09T11:31:39;24.00;1.00
20174;DHT22;10246;50.620;7.232;2023-10-09T11:34:18;24.00;1.00
20174;DHT22;10246;50.620;7.232;2023-10-09T11:36:56;24.00;1.00
20174;DHT22;10246;50.620;7.232;2023-10-09T11:39:25;24.10;1.00
20174;DHT22;10246;50.620;7.232;2023-10-09T11:42:01;24.20;1.00
20174;DHT22;10246;50.620;7.232;2023-10-09T11:44:39;24.20;1.00
20174;DHT22;10246;50.620;7.232;2023-10-09T11:47:07;24.10;1.00
20174;DHT22;10246;50.620;7.232;2023-10-09T11:49:50;24.20;1.00
20174;DHT22;10246;50.620;7.232;2023-10-09T11:52:58;24.30;1.00
20174;DHT22;10246;50.620;7.232;2023-10-09T11:55:35;24.50;1.00
20174;DHT22;10246;50.620;7.232;2023-10-09T11:58:03;24.50;1.00
20174;DHT22;10246;50.620;7.232;2023-10-09T12:00:32;24.60;1.00
20174;DHT22;10246;50.620;7.232;2023-10-09T12:03:10;24.50;1.00
20174;DHT22;10246;50.620;7.232;2023-10-09T12:05:38;24.60;1.00
20174;DHT22;10246;50.620;7.232;2023-10-09T12:08:10;24.50;1.00
20174;DHT22;10246;50.620;7.232;2023-10-09T12:10:37;24.60;1.00
20174;DHT22;10246;50.620;7.232;2023-10-09T12:13:06;24.60;1.00
20174;DHT22;10246;50.620;7.232;2023-10-09T12:15:33;24.70;1.00
20174;DHT22;10246;50.620;7.232;2023-10-09T12:18:07;24.70;1.00
20174;DHT22;10246;50.620;7.232;2023-10-09T12:20:40;24.80;1.00
20174;DHT22;10246;50.620;7.232;2023-10-09T12:23:09;24.80;1.00
20174;DHT22;10246;50.620;7.232;2023-10-09T12:25:40;24.80;1.00
20174;DHT22;10246;50.620;7.232;2023-10-09T12:28:10;24.90;1.00
20174;DHT22;10246;50.620;7.232;2023-10-09T12:30:38;24.90;1.00
20174;DHT22;10246;50.620;7.232;2023-10-09T12:33:06;24.80;1.00
20174;DHT22;10246;50.620;7.232;2023-10-09T12:35:36;24.80;1.00
20174;DHT22;10246;50.620;7.232;2023-10-09T12:38:03;24.60;1.00
20174;DHT22;10246;50.620;7.232;2023-10-09T12:40:36;24.60;1.00
20174;DHT22;10246;50.620;7.232;2023-10-09T12:43:05;24.60;1.00
20174;DHT22;10246;50.620;7.232;2023-10-09T12:45:41;24.50;1.00
20174;DHT22;10246;50.620;7.232;2023-10-09T12:48:07;24.50;1.00
20174;DHT22;10246;50.620;7.232;2023-10-09T12:50:35;24.50;1.00
20174;DHT22;10246;50.620;7.232;2023-10-09T12:53:07;24.50;1.00
20174;DHT22;10246;50.620;7.232;2023-10-09T12:55:39;24.40;1.00
20174;DHT22;10246;50.620;7.232;2023-10-09T12:58:08;24.30;1.00
20174;DHT22;10246;50.620;7.232;2023-10-09T13:00:36;24.40;1.00
20174;DHT22;10246;50.620;7.232;2023-10-09T13:03:05;24.30;1.00
20174;DHT22;10246;50.620;7.232;2023-10-09T13:05:46;24.40;1.00
20174;DHT22;10246;50.620;7.232;2023-10-09T13:08:19;24.40;1.00
20174;DHT22;10246;50.620;7.232;2023-10-09T13:10:51;24.30;1.00
20174;DHT22;10246;50.620;7.232;2023-10-09T13:13:33;24.30;1.00
20174;DHT22;10246;50.620;7.232;2023-10-09T13:16:07;24.30;1.00
20174;DHT22;10246;50.620;7.232;2023-10-09T13:18:37;24.20;1.00
20174;DHT22;10246;50.620;7.232;2023-10-09T13:21:04;24.20;1.00
20174;DHT22;10246;50.620;7.232;2023-10-09T13:23:31;24.30;1.00
20174;DHT22;10246;50.620;7.232;2023-10-09T13:26:06;24.40;1.00
20174;DHT22;10246;50.620;7.232;2023-10-09T13:28:44;24.30;1.00
20174;DHT22;10246;50.620;7.232;2023-10-09T13:31:11;24.40;1.00
20174;DHT22;10246;50.620;7.232;2023-10-09T13:33:40;24.40;1.00
20174;DHT22;10246;50.620;7.232;2023-10-09T13:36:08;24.40;1.00
20174;DHT22;10246;50.620;7.232;2023-10-09T13:38:43;24.40;1.00
20174;DHT22;10246;50.620;7.232;2023-10-09T13:41:11;24.40;1.00
20174;DHT22;10246;50.620;7.232;2023-10-09T13:43:40;24.50;1.00
20174;DHT22;10246;50.620;7.232;2023-10-09T13:46:08;24.40;1.00
20174;DHT22;10246;50.620;7.232;2023-10-09T13:48:35;24.30;1.00
20174;DHT22;10246;50.620;7.232;2023-10-09T13:51:07;24.30;1.00
20174;DHT22;10246;50.620;7.232;2023-10-09T13:53:34;24.20;1.00
20174;DHT22;10246;50.620;7.232;2023-10-09T13:56:02;24.20;1.00
20174;DHT22;10246;50.620;7.232;2023-10-09T13:58:33;24.20;1.00
20174;DHT22;10246;50.620;7.232;2023-10-09T14:01:00;24.20;1.00
20174;DHT22;10246;50.620;7.232;2023-10-09T14:03:27;24.20;1.00
20174;DHT22;10246;50.620;7.232;2023-10-09T14:05:54;24.20;1.00
20174;DHT22;10246;50.620;7.232;2023-10-09T14:08:22;24.20;1.00
20174;DHT22;10246;50.620;7.232;2023-10-09T14:10:51;24.20;1.00
20174;DHT22;10246;50.620;7.232;2023-10-09T14:13:19;24.20;1.00
20174;DHT22;10246;50.620;7.232;2023-10-09T14:15:53;24.20;1.00
20174;DHT22;10246;50.620;7.232;2023-10-09T14:18:21;24.00;1.00
20174;DHT22;10246;50.620;7.232;2023-10-09T14:20:48;24.00;1.00
20174;DHT22;10246;50.620;7.232;2023-10-09T14:23:15;23.90;1.00
20174;DHT22;10246;50.620;7.232;2023-10-09T14:25:46;23.90;1.00
20174;DHT22;10246;50.620;7.232;2023-10-09T14:28:15;23.90;1.00
20174;DHT22;10246;50.620;7.232;2023-10-09T14:30:44;24.00;1.00
20174;DHT22;10246;50.620;7.232;2023-10-09T14:33:15;23.90;1.00
20174;DHT22;10246;50.620;7.232;2023-10-09T14:35:48;23.90;1.00
20174;DHT22;10246;50.620;7.232;2023-10-09T14:38:17;23.80;1.00
20174;DHT22;10246;50.620;7.232;2023-10-09T14:40:52;23.70;1.00
20174;DHT22;10246;50.620;7.232;2023-10-09T14:43:23;23.80;1.00
20174;DHT22;10246;50.620;7.232;2023-10-09T14:45:54;23.90;1.00
20174;DHT22;10246;50.620;7.232;2023-10-09T14:48:22;23.90;1.00
20174;DHT22;10246;50.620;7.232;2023-10-09T14:50:52;23.90;1.00
20174;DHT22;10246;50.620;7.232;2023-10-09T14:53:19;23.80;1.00
20174;DHT22;10246;50.620;7.232;2023-10-09T14:55:54;23.80;1.00
20174;DHT22;10246;50.620;7.232;2023-10-09T14:58:20;23.80;1.00
20174;DHT22;10246;50.620;7.232;2023-10-09T15:00:50;23.80;1.00
20174;DHT22;10246;50.620;7.232;2023-10-09T15:03:17;23.80;1.00
20174;DHT22;10246;50.620;7.232;2023-10-09T15:05:46;23.70;1.00
20174;DHT22;10246;50.620;7.232;2023-10-09T15:08:13;23.70;1.00
20174;DHT22;10246;50.620;7.232;2023-10-09T15:10:46;23.70;1.00
20174;DHT22;10246;50.620;7.232;2023-10-09T15:13:14;23.70;1.00
20174;DHT22;10246;50.620;7.232;2023-10-09T15:15:41;23.60;1.00
20174;DHT22;10246;50.620;7.232;2023-10-09T15:18:08;23.60;1.00
20174;DHT22;10246;50.620;7.232;2023-10-09T15:20:37;23.50;1.00
20174;DHT22;10246;50.620;7.232;2023-10-09T15:23:07;23.50;1.00
20174;DHT22;10246;50.620;7.232;2023-10-09T15:25:33;23.40;1.00
20174;DHT22;10246;50.620;7.232;2023-10-09T15:28:00;23.40;1.00
20174;DHT22;10246;50.620;7.232;2023-10-09T15:30:28;23.30;1.00
20174;DHT22;10246;50.620;7.232;2023-10-09T15:32:57;23.40;1.00
20174;DHT22;10246;50.620;7.232;2023-10-09T15:35:23;23.30;1.00
20174;DHT22;10246;50.620;7.232;2023-10-09T15:37:50;23.20;1.00
20174;DHT22;10246;50.620;7.232;2023-10-09T15:40:19;23.20;1.00
20174;DHT22;10246;50.620;7.232;2023-10-09T15:42:50;23.10;1.00
20174;DHT22;10246;50.620;7.232;2023-10-09T15:45:21;23.00;1.00
20174;DHT22;10246;50.620;7.232;2023-10-09T15:47:49;23.10;1.00
20174;DHT22;10246;50.620;7.232;2023-10-09T15:50:17;23.00;1.00
20174;DHT22;10246;50.620;7.232;2023-10-09T15:52:45;22.90;1.00
20174;DHT22;10246;50.620;7.232;2023-10-09T15:55:13;22.90;1.00
20174;DHT22;10246;50.620;7.232;2023-10-09T15:57:41;22.90;1.00
20174;DHT22;10246;50.620;7.232;2023-10-09T16:00:09;22.80;1.00
20174;DHT22;10246;50.620;7.232;2023-10-09T16:02:43;22.70;1.00
20174;DHT22;10246;50.620;7.232;2023-10-09T16:05:11;22.60;1.00
20174;DHT22;10246;50.620;7.232;2023-10-09T16:07:39;22.60;1.00
20174;DHT22;10246;50.620;7.232;2023-10-09T16:10:06;22.70;1.00
20174;DHT22;10246;50.620;7.232;2023-10-09T16:12:34;22.60;1.00
20174;DHT22;10246;50.620;7.232;2023-10-09T16:15:03;22.50;1.00
20174;DHT22;10246;50.620;7.232;2023-10-09T16:17:30;22.40;1.00